Time;durP1;ratioP1;P1;durP2;ratioP2;P2;SDS_P1;SDS_P2;PMS_P1;PMS_P2;Temp;Humidity;BMP_temperature;BMP_pressure;BME280_temperature;BME280_humidity;BME280_pressure;Samples;Min_cycle;Max_cycle;Signal;HPM_P1;HPM_P2
2022/03/05 00:00:33;;;;;;;20.92;10.98;;;;;;;;;;5090372;28;20028;-86
2022/03/05 00:02:59;;;;;;;23.50;12.82;;;;;;;;;;5090905;28;20103;-86
2022/03/05 00:05:25;;;;;;;26.65;12.25;;;;;;;;;;5087994;28;20597;-85
2022/03/05 00:07:52;;;;;;;25.50;11.68;;;;;;;;;;5089949;28;20534;-86
2022/03/05 00:10:21;;;;;;;19.77;9.75;;;;;;;;;;5092380;28;20020;-85
2022/03/05 00:12:48;;;;;;;16.60;7.80;;;;;;;;;;5090287;28;20660;-84
2022/03/05 00:15:14;;;;;;;19.15;8.18;;;;;;;;;;5090304;28;20021;-84
2022/03/05 00:17:40;;;;;;;20.75;7.90;;;;;;;;;;5091006;28;20027;-85
2022/03/05 00:20:07;;;;;;;16.15;8.23;;;;;;;;;;5090528;28;20404;-85
2022/03/05 00:22:33;;;;;;;20.75;8.82;;;;;;;;;;5090740;28;20046;-89
2022/03/05 00:24:59;;;;;;;15.18;7.60;;;;;;;;;;5089467;28;20024;-85
2022/03/05 00:27:25;;;;;;;19.92;7.50;;;;;;;;;;5091199;28;20043;-84
2022/03/05 00:29:52;;;;;;;17.70;7.90;;;;;;;;;;5090354;28;20026;-84
2022/03/05 00:32:18;;;;;;;15.02;8.13;;;;;;;;;;5090542;28;20032;-87
2022/03/05 00:34:45;;;;;;;22.40;7.65;;;;;;;;;;5090298;28;20024;-84
2022/03/05 00:37:11;;;;;;;20.15;8.13;;;;;;;;;;5090763;28;20062;-84
2022/03/05 00:39:37;;;;;;;16.30;8.25;;;;;;;;;;5090814;28;20024;-90
2022/03/05 00:42:04;;;;;;;13.20;7.20;;;;;;;;;;5091053;28;20032;-90
2022/03/05 00:44:30;;;;;;;16.67;7.35;;;;;;;;;;5090783;28;20028;-87
2022/03/05 00:46:56;;;;;;;15.75;7.75;;;;;;;;;;5090694;28;20028;-84
2022/03/05 00:49:22;;;;;;;15.15;7.60;;;;;;;;;;5089765;28;20054;-85
2022/03/05 00:51:48;;;;;;;13.23;7.20;;;;;;;;;;5090335;28;20035;-87
2022/03/05 00:54:15;;;;;;;14.82;7.60;;;;;;;;;;5091039;28;20077;-84
2022/03/05 00:56:41;;;;;;;10.85;7.80;;;;;;;;;;5089923;28;20103;-84
2022/03/05 00:59:07;;;;;;;12.75;7.07;;;;;;;;;;5091413;28;20023;-83
2022/03/05 01:01:33;;;;;;;16.15;7.30;;;;;;;;;;5089576;28;20038;-86
2022/03/05 01:03:59;;;;;;;21.05;7.82;;;;;;;;;;5091284;28;20089;-85
2022/03/05 01:06:27;;;;;;;15.73;8.23;;;;;;;;;;5091652;28;20028;-84
2022/03/05 01:08:53;;;;;;;15.38;8.07;;;;;;;;;;5093997;28;20020;-87
2022/03/05 01:11:19;;;;;;;14.25;7.72;;;;;;;;;;5094058;28;20024;-85
2022/03/05 01:13:46;;;;;;;13.50;7.57;;;;;;;;;;5090664;28;20134;-88
2022/03/05 01:16:13;;;;;;;12.65;7.30;;;;;;;;;;5090018;28;20028;-88
2022/03/05 01:18:39;;;;;;;15.90;8.23;;;;;;;;;;5089302;28;20033;-84
2022/03/05 01:21:05;;;;;;;15.30;8.30;;;;;;;;;;5088346;28;20027;-84
2022/03/05 01:23:31;;;;;;;14.80;7.50;;;;;;;;;;5089014;28;20073;-84
2022/03/05 01:25:57;;;;;;;18.58;7.90;;;;;;;;;;5089759;28;20031;-90
2022/03/05 01:28:23;;;;;;;18.58;7.90;;;;;;;;;;5089397;28;20073;-89
2022/03/05 01:30:49;;;;;;;14.70;7.15;;;;;;;;;;5088013;28;20027;-87
2022/03/05 01:33:17;;;;;;;15.43;8.45;;;;;;;;;;5089634;28;20329;-86
2022/03/05 01:35:43;;;;;;;12.50;7.60;;;;;;;;;;5089512;28;20012;-93
2022/03/05 01:38:10;;;;;;;16.85;8.35;;;;;;;;;;5092248;28;20563;-92
2022/03/05 01:40:36;;;;;;;14.55;7.75;;;;;;;;;;5090786;28;20031;-94
2022/03/05 01:43:04;;;;;;;14.30;7.25;;;;;;;;;;5090551;28;20031;-84
2022/03/05 01:45:30;;;;;;;19.00;7.50;;;;;;;;;;5089207;28;20020;-85
2022/03/05 01:47:56;;;;;;;15.65;7.60;;;;;;;;;;5089962;28;20543;-84
2022/03/05 01:50:22;;;;;;;13.23;7.15;;;;;;;;;;5088118;28;20046;-87
2022/03/05 01:52:48;;;;;;;13.90;7.60;;;;;;;;;;5088843;28;20098;-86
2022/03/05 01:55:15;;;;;;;10.18;6.43;;;;;;;;;;5088775;28;20070;-84
2022/03/05 01:57:41;;;;;;;15.75;7.22;;;;;;;;;;5088596;28;20035;-87
2022/03/05 02:00:09;;;;;;;17.42;7.20;;;;;;;;;;5088430;28;20052;-85
2022/03/05 02:02:35;;;;;;;14.98;7.57;;;;;;;;;;5088795;28;20034;-85
2022/03/05 02:05:01;;;;;;;11.70;6.85;;;;;;;;;;5087542;28;20020;-85
2022/03/05 02:07:29;;;;;;;14.38;7.32;;;;;;;;;;5090135;28;20066;-83
2022/03/05 02:09:55;;;;;;;12.00;7.75;;;;;;;;;;5089617;28;20400;-84
2022/03/05 02:12:28;;;;;;;14.27;6.63;;;;;;;;;;5089025;28;20120;-85
2022/03/05 02:14:54;;;;;;;14.98;7.38;;;;;;;;;;5089224;28;20059;-83
2022/03/05 02:17:21;;;;;;;13.90;6.88;;;;;;;;;;5087383;28;20399;-84
2022/03/05 02:19:47;;;;;;;13.90;6.82;;;;;;;;;;5088398;28;20399;-84
2022/03/05 02:22:13;;;;;;;18.65;7.60;;;;;;;;;;5088707;28;20028;-84
2022/03/05 02:24:39;;;;;;;14.95;7.25;;;;;;;;;;5087827;28;20012;-85
2022/03/05 02:27:06;;;;;;;9.85;6.30;;;;;;;;;;5088459;28;20440;-84
2022/03/05 02:29:32;;;;;;;13.38;7.35;;;;;;;;;;5086328;28;20024;-84
2022/03/05 02:31:59;;;;;;;11.95;6.90;;;;;;;;;;5087216;28;20507;-84
2022/03/05 02:34:25;;;;;;;11.07;6.93;;;;;;;;;;5089425;28;20020;-83
2022/03/05 02:36:51;;;;;;;14.80;7.18;;;;;;;;;;5087966;28;20028;-83
2022/03/05 02:39:17;;;;;;;12.68;6.80;;;;;;;;;;5087797;28;20095;-84
2022/03/05 02:41:44;;;;;;;13.23;6.38;;;;;;;;;;5088361;28;20024;-84
2022/03/05 02:44:10;;;;;;;14.02;6.80;;;;;;;;;;5088416;28;20361;-84
2022/03/05 02:46:37;;;;;;;11.40;6.07;;;;;;;;;;5087654;28;20090;-85
2022/03/05 02:49:03;;;;;;;13.90;7.00;;;;;;;;;;5088419;28;20073;-84
2022/03/05 02:51:30;;;;;;;11.68;7.10;;;;;;;;;;5088192;28;20032;-83
2022/03/05 02:53:56;;;;;;;12.55;6.53;;;;;;;;;;5089203;28;20027;-84
2022/03/05 02:56:22;;;;;;;13.43;6.57;;;;;;;;;;5088133;28;20043;-84
2022/03/05 02:58:48;;;;;;;9.45;7.18;;;;;;;;;;5088588;28;20299;-84
2022/03/05 03:01:14;;;;;;;12.93;6.75;;;;;;;;;;5088864;28;20024;-90
2022/03/05 03:03:41;;;;;;;17.95;6.97;;;;;;;;;;5089061;28;20023;-90
2022/03/05 03:06:07;;;;;;;12.32;7.45;;;;;;;;;;5087738;28;20032;-91
2022/03/05 03:08:33;;;;;;;12.90;7.10;;;;;;;;;;5088023;28;20069;-92
2022/03/05 03:11:00;;;;;;;10.30;6.15;;;;;;;;;;5088888;28;20081;-90
2022/03/05 03:13:26;;;;;;;11.25;6.38;;;;;;;;;;5092231;28;20059;-83
2022/03/05 03:15:52;;;;;;;10.65;5.90;;;;;;;;;;5092209;28;20107;-89
2022/03/05 03:18:18;;;;;;;16.48;6.70;;;;;;;;;;5090708;28;20825;-84
2022/03/05 03:20:44;;;;;;;17.80;6.75;;;;;;;;;;5093192;28;20102;-84
2022/03/05 03:23:11;;;;;;;10.88;6.63;;;;;;;;;;5093105;28;20024;-91
2022/03/05 03:25:40;;;;;;;13.35;6.80;;;;;;;;;;5093057;28;20031;-84
2022/03/05 03:28:06;;;;;;;10.70;6.50;;;;;;;;;;5092242;28;20107;-85
2022/03/05 03:30:33;;;;;;;16.35;7.18;;;;;;;;;;5091941;28;20035;-91
2022/03/05 03:32:59;;;;;;;11.07;6.65;;;;;;;;;;5092358;28;20491;-83
2022/03/05 03:35:25;;;;;;;11.23;6.55;;;;;;;;;;5092789;28;20476;-85
2022/03/05 03:37:51;;;;;;;14.68;6.15;;;;;;;;;;5090679;28;20031;-92
2022/03/05 03:40:18;;;;;;;10.63;6.53;;;;;;;;;;5091966;28;20020;-85
2022/03/05 03:42:45;;;;;;;9.18;6.32;;;;;;;;;;5090319;28;20052;-87
2022/03/05 03:45:12;;;;;;;16.55;6.95;;;;;;;;;;5092368;28;20017;-89
2022/03/05 03:47:39;;;;;;;13.95;6.85;;;;;;;;;;5091250;28;20078;-91
2022/03/05 03:50:05;;;;;;;12.63;6.70;;;;;;;;;;5092694;28;20048;-84
2022/03/05 03:52:32;;;;;;;14.15;6.63;;;;;;;;;;5091551;28;20027;-84
2022/03/05 03:54:58;;;;;;;15.65;6.68;;;;;;;;;;5093601;28;20028;-85
2022/03/05 03:57:24;;;;;;;14.48;7.00;;;;;;;;;;5093162;28;20028;-89
2022/03/05 03:59:51;;;;;;;17.23;7.15;;;;;;;;;;5092610;28;20036;-85
2022/03/05 04:02:19;;;;;;;18.17;7.30;;;;;;;;;;5091883;28;20099;-89
2022/03/05 04:04:45;;;;;;;16.38;7.28;;;;;;;;;;5090956;28;20024;-83
2022/03/05 04:09:55;;;;;;;13.23;7.10;;;;;;;;;;5092325;28;20082;-85
2022/03/05 04:12:22;;;;;;;14.02;6.38;;;;;;;;;;5091124;28;20495;-83
2022/03/05 04:14:48;;;;;;;11.65;6.35;;;;;;;;;;5090934;28;20436;-85
2022/03/05 04:17:15;;;;;;;11.43;6.15;;;;;;;;;;5090604;28;20536;-84
2022/03/05 04:19:41;;;;;;;10.70;6.28;;;;;;;;;;5088676;28;20036;-84
2022/03/05 04:22:07;;;;;;;12.38;6.05;;;;;;;;;;5090028;28;20012;-84
2022/03/05 04:24:34;;;;;;;13.18;6.18;;;;;;;;;;5089583;28;20480;-84
2022/03/05 04:27:00;;;;;;;10.80;5.90;;;;;;;;;;5090770;28;20028;-85
2022/03/05 04:29:27;;;;;;;14.02;6.40;;;;;;;;;;5097278;28;20027;-85
2022/03/05 04:31:53;;;;;;;11.70;5.68;;;;;;;;;;5090901;28;20039;-87
2022/03/05 04:34:19;;;;;;;10.15;6.07;;;;;;;;;;5104189;28;20479;-85
2022/03/05 04:36:46;;;;;;;12.82;5.90;;;;;;;;;;5102510;28;20051;-84
2022/03/05 04:39:12;;;;;;;10.63;5.78;;;;;;;;;;5091173;28;20024;-86
2022/03/05 04:41:39;;;;;;;11.85;5.95;;;;;;;;;;5092752;28;20020;-84
2022/03/05 04:44:05;;;;;;;9.48;5.28;;;;;;;;;;5090341;28;20032;-85
2022/03/05 04:46:31;;;;;;;12.15;5.70;;;;;;;;;;5088698;28;20032;-84
2022/03/05 04:48:57;;;;;;;10.48;4.95;;;;;;;;;;5092185;28;20032;-86
2022/03/05 04:51:23;;;;;;;9.98;4.85;;;;;;;;;;5090779;28;20464;-84
2022/03/05 04:53:50;;;;;;;12.00;5.20;;;;;;;;;;5094124;28;20024;-84
2022/03/05 04:56:16;;;;;;;7.70;4.88;;;;;;;;;;5109737;28;20436;-90
2022/03/05 04:58:42;;;;;;;13.30;5.00;;;;;;;;;;5104861;28;20032;-86
2022/03/05 05:01:08;;;;;;;9.00;4.55;;;;;;;;;;5091037;28;20016;-86
2022/03/05 05:03:34;;;;;;;15.23;4.32;;;;;;;;;;5099906;28;20109;-84
2022/03/05 05:06:00;;;;;;;7.13;4.30;;;;;;;;;;5100936;28;20067;-85
2022/03/05 05:08:26;;;;;;;9.63;4.05;;;;;;;;;;5092641;28;20050;-86
2022/03/05 05:10:52;;;;;;;9.27;4.43;;;;;;;;;;5095771;28;20016;-87
2022/03/05 05:13:19;;;;;;;10.45;4.72;;;;;;;;;;5101722;28;20035;-87
2022/03/05 05:15:47;;;;;;;8.45;4.57;;;;;;;;;;5088760;28;20471;-87
2022/03/05 05:18:14;;;;;;;7.72;4.43;;;;;;;;;;5090134;28;20422;-87
2022/03/05 05:20:40;;;;;;;9.45;4.30;;;;;;;;;;5089891;28;20024;-88
2022/03/05 05:23:06;;;;;;;8.02;3.92;;;;;;;;;;5089886;28;20032;-84
2022/03/05 05:25:32;;;;;;;10.40;4.25;;;;;;;;;;5089890;28;20027;-85
2022/03/05 05:27:58;;;;;;;12.35;3.92;;;;;;;;;;5090640;28;20558;-83
2022/03/05 05:30:24;;;;;;;5.68;3.88;;;;;;;;;;5090702;28;20048;-86
2022/03/05 05:32:50;;;;;;;10.68;4.53;;;;;;;;;;5089642;28;20085;-85
2022/03/05 05:35:16;;;;;;;9.93;3.97;;;;;;;;;;5088173;28;20016;-83
2022/03/05 05:37:42;;;;;;;7.38;3.78;;;;;;;;;;5089684;28;20065;-86
2022/03/05 05:40:09;;;;;;;12.00;3.90;;;;;;;;;;5089882;28;20016;-86
2022/03/05 05:42:35;;;;;;;7.10;3.72;;;;;;;;;;5089358;28;20024;-87
2022/03/05 05:45:01;;;;;;;8.35;3.55;;;;;;;;;;5089773;28;20098;-87
2022/03/05 05:47:27;;;;;;;6.63;3.92;;;;;;;;;;5095002;28;20031;-84
2022/03/05 05:49:53;;;;;;;7.40;3.50;;;;;;;;;;5109933;28;20055;-83
2022/03/05 05:52:19;;;;;;;6.57;3.58;;;;;;;;;;5109936;28;20485;-83
2022/03/05 05:54:46;;;;;;;11.73;3.75;;;;;;;;;;5110003;28;20395;-84
2022/03/05 05:57:12;;;;;;;8.82;3.75;;;;;;;;;;5108865;28;20035;-85
2022/03/05 05:59:38;;;;;;;7.75;3.55;;;;;;;;;;5110287;28;20026;-83
2022/03/05 06:02:04;;;;;;;8.13;3.50;;;;;;;;;;5108988;28;20092;-85
2022/03/05 06:04:30;;;;;;;7.50;3.47;;;;;;;;;;5110182;28;20150;-84
2022/03/05 06:06:56;;;;;;;7.80;3.35;;;;;;;;;;5111295;28;20036;-84
2022/03/05 06:09:23;;;;;;;7.15;3.63;;;;;;;;;;5111074;28;20146;-83
2022/03/05 06:11:49;;;;;;;6.05;3.80;;;;;;;;;;5110566;28;20073;-86
2022/03/05 06:14:15;;;;;;;7.13;3.60;;;;;;;;;;5110138;28;20467;-85
2022/03/05 06:16:42;;;;;;;5.78;3.35;;;;;;;;;;5110181;28;20030;-83
2022/03/05 06:19:08;;;;;;;5.65;3.75;;;;;;;;;;5109853;28;20019;-83
2022/03/05 06:21:34;;;;;;;9.25;3.38;;;;;;;;;;5109356;28;20024;-85
2022/03/05 06:24:00;;;;;;;8.23;3.70;;;;;;;;;;5109522;28;20016;-84
2022/03/05 06:26:31;;;;;;;9.23;3.50;;;;;;;;;;5110442;28;20063;-91
2022/03/05 06:28:57;;;;;;;6.03;3.53;;;;;;;;;;5112429;28;20016;-92
2022/03/05 06:31:24;;;;;;;7.72;3.88;;;;;;;;;;5110791;28;20082;-93
2022/03/05 06:33:50;;;;;;;7.78;3.60;;;;;;;;;;5109524;28;20051;-87
2022/03/05 06:36:16;;;;;;;10.13;3.72;;;;;;;;;;5108657;28;20035;-90
2022/03/05 06:38:42;;;;;;;5.60;3.30;;;;;;;;;;5109471;28;20020;-90
2022/03/05 06:41:08;;;;;;;5.80;3.50;;;;;;;;;;5109726;28;20398;-90
2022/03/05 06:43:34;;;;;;;8.18;3.80;;;;;;;;;;5109507;28;20031;-88
2022/03/05 06:46:00;;;;;;;6.72;3.60;;;;;;;;;;5109026;28;20061;-85
2022/03/05 06:48:26;;;;;;;13.93;4.03;;;;;;;;;;5114035;28;20019;-85
2022/03/05 06:50:52;;;;;;;7.35;3.70;;;;;;;;;;5113042;28;20039;-83
2022/03/05 06:53:18;;;;;;;6.82;3.60;;;;;;;;;;5113343;28;20019;-87
2022/03/05 06:55:44;;;;;;;6.20;3.63;;;;;;;;;;5113298;28;20106;-84
2022/03/05 06:58:10;;;;;;;9.07;3.60;;;;;;;;;;5111548;28;20038;-83
2022/03/05 07:00:37;;;;;;;10.05;4.10;;;;;;;;;;5112659;28;20020;-84
2022/03/05 07:03:03;;;;;;;9.95;4.05;;;;;;;;;;5112556;28;20024;-83
2022/03/05 07:05:29;;;;;;;9.55;3.88;;;;;;;;;;5112658;28;20020;-83
2022/03/05 07:07:55;;;;;;;9.25;3.67;;;;;;;;;;5112169;28;20039;-83
2022/03/05 07:10:21;;;;;;;8.57;4.38;;;;;;;;;;5111183;28;20024;-84
2022/03/05 07:12:47;;;;;;;6.22;3.88;;;;;;;;;;5111988;28;20059;-86
2022/03/05 07:15:13;;;;;;;6.55;3.75;;;;;;;;;;5112377;28;20064;-83
2022/03/05 07:17:46;;;;;;;6.65;3.70;;;;;;;;;;5112184;28;20027;-83
2022/03/05 07:20:12;;;;;;;6.30;4.07;;;;;;;;;;5111011;28;20020;-84
2022/03/05 07:22:38;;;;;;;6.22;3.63;;;;;;;;;;5112325;28;20020;-86
2022/03/05 07:25:05;;;;;;;7.18;3.80;;;;;;;;;;5112631;28;20103;-85
2022/03/05 07:27:31;;;;;;;5.72;3.85;;;;;;;;;;5112468;28;20110;-87
2022/03/05 07:29:57;;;;;;;6.45;4.20;;;;;;;;;;5114176;27;20023;-88
2022/03/05 07:32:23;;;;;;;11.95;4.45;;;;;;;;;;5112665;28;20108;-85
2022/03/05 07:34:49;;;;;;;9.40;4.05;;;;;;;;;;5117127;28;20032;-87
2022/03/05 07:37:16;;;;;;;5.03;3.80;;;;;;;;;;5115433;28;20019;-84
2022/03/05 07:39:42;;;;;;;7.07;4.00;;;;;;;;;;5115315;28;20020;-87
2022/03/05 07:42:08;;;;;;;7.18;3.60;;;;;;;;;;5102617;28;20036;-85
2022/03/05 07:44:34;;;;;;;9.00;4.30;;;;;;;;;;5092047;28;20031;-85
2022/03/05 07:47:00;;;;;;;8.10;4.00;;;;;;;;;;5091935;28;20032;-84
2022/03/05 07:49:27;;;;;;;5.95;4.00;;;;;;;;;;5091707;28;20024;-86
2022/03/05 07:51:53;;;;;;;7.63;4.30;;;;;;;;;;5091685;28;20094;-86
2022/03/05 07:54:19;;;;;;;11.85;4.15;;;;;;;;;;5091838;28;20546;-85
2022/03/05 07:56:46;;;;;;;6.57;3.78;;;;;;;;;;5090368;28;20438;-85
2022/03/05 07:59:12;;;;;;;7.68;4.40;;;;;;;;;;5091554;28;20012;-85
2022/03/05 08:01:38;;;;;;;7.32;3.80;;;;;;;;;;5089437;28;20032;-84
2022/03/05 08:04:04;;;;;;;9.75;3.92;;;;;;;;;;5091657;28;20031;-85
2022/03/05 08:06:30;;;;;;;9.43;4.20;;;;;;;;;;5090996;28;20064;-84
2022/03/05 08:08:59;;;;;;;10.02;4.97;;;;;;;;;;5092341;28;20043;-85
2022/03/05 08:11:25;;;;;;;;;;;;;;;;;;5092677;28;20429;-88
2022/03/05 08:13:51;;;;;;;10.45;4.78;;;;;;;;;;5089912;28;19908;-85
2022/03/05 08:16:17;;;;;;;13.60;5.60;;;;;;;;;;5091497;28;20109;-85
2022/03/05 08:18:43;;;;;;;11.77;5.25;;;;;;;;;;5091086;28;20024;-84
2022/03/05 08:21:09;;;;;;;14.10;5.43;;;;;;;;;;5091012;28;20490;-85
2022/03/05 08:23:35;;;;;;;11.82;6.28;;;;;;;;;;5091083;28;20483;-85
2022/03/05 08:26:02;;;;;;;17.67;6.20;;;;;;;;;;5090409;28;20111;-81
2022/03/05 08:28:28;;;;;;;12.85;5.75;;;;;;;;;;5092998;28;20028;-83
2022/03/05 08:30:54;;;;;;;14.55;5.93;;;;;;;;;;5091163;28;20032;-85
2022/03/05 08:33:21;;;;;;;18.40;6.00;;;;;;;;;;5090041;28;20027;-85
2022/03/05 08:35:48;;;;;;;47.40;7.35;;;;;;;;;;5091070;28;20491;-85
2022/03/05 08:38:14;;;;;;;21.88;6.60;;;;;;;;;;5089398;28;20391;-84
2022/03/05 08:40:41;;;;;;;17.50;6.78;;;;;;;;;;5091082;28;20024;-84
2022/03/05 08:43:07;;;;;;;17.95;6.85;;;;;;;;;;5091027;28;20020;-85
2022/03/05 08:45:33;;;;;;;20.75;7.10;;;;;;;;;;5090696;28;20027;-83
2022/03/05 08:47:59;;;;;;;17.98;7.40;;;;;;;;;;5091628;28;20055;-85
2022/03/05 08:50:25;;;;;;;17.73;7.95;;;;;;;;;;5090688;28;20065;-85
2022/03/05 08:52:51;;;;;;;20.38;8.45;;;;;;;;;;5090975;28;20024;-84
2022/03/05 08:55:17;;;;;;;20.85;8.55;;;;;;;;;;5090766;28;20032;-84
2022/03/05 08:57:43;;;;;;;22.35;8.35;;;;;;;;;;5090656;28;20043;-84
2022/03/05 09:00:11;;;;;;;19.13;8.82;;;;;;;;;;5090761;28;20027;-85
2022/03/05 09:02:37;;;;;;;16.15;8.15;;;;;;;;;;5089367;28;20035;-84
2022/03/05 09:05:04;;;;;;;21.90;8.35;;;;;;;;;;5090688;28;20047;-84
2022/03/05 09:07:30;;;;;;;22.30;8.00;;;;;;;;;;5089775;28;20031;-85
2022/03/05 09:09:56;;;;;;;17.35;8.75;;;;;;;;;;5089635;28;20020;-85
2022/03/05 09:12:22;;;;;;;21.33;9.23;;;;;;;;;;5090428;28;20966;-85
2022/03/05 09:14:49;;;;;;;18.65;8.60;;;;;;;;;;5088963;28;20468;-84
2022/03/05 09:17:15;;;;;;;20.70;9.45;;;;;;;;;;5090391;28;20020;-84
2022/03/05 09:19:42;;;;;;;15.30;8.85;;;;;;;;;;5090233;28;20024;-84
2022/03/05 09:22:09;;;;;;;18.73;9.25;;;;;;;;;;5090240;28;20028;-84
2022/03/05 09:24:36;;;;;;;19.23;8.40;;;;;;;;;;5090097;28;20020;-84
2022/03/05 09:27:02;;;;;;;14.00;8.35;;;;;;;;;;5090875;28;20028;-84
2022/03/05 09:29:28;;;;;;;16.23;8.60;;;;;;;;;;5090172;28;20062;-84
2022/03/05 09:31:55;;;;;;;19.08;8.50;;;;;;;;;;5089986;28;20237;-85
2022/03/05 09:34:21;;;;;;;14.63;8.20;;;;;;;;;;5088792;28;20047;-84
2022/03/05 09:36:47;;;;;;;15.93;8.82;;;;;;;;;;5090011;28;20081;-84
2022/03/05 09:39:13;;;;;;;16.70;8.68;;;;;;;;;;5088534;28;20059;-85
2022/03/05 09:41:39;;;;;;;16.58;7.72;;;;;;;;;;5088581;28;20111;-84
2022/03/05 09:44:06;;;;;;;15.73;8.15;;;;;;;;;;5089884;28;20016;-85
2022/03/05 09:46:32;;;;;;;13.30;7.72;;;;;;;;;;5089236;28;20039;-84
2022/03/05 09:48:59;;;;;;;18.52;7.97;;;;;;;;;;5089803;28;20020;-84
2022/03/05 09:51:25;;;;;;;11.05;7.43;;;;;;;;;;5089651;28;20055;-85
2022/03/05 09:53:54;;;;;;;18.67;8.38;;;;;;;;;;5089589;28;20020;-85
2022/03/05 09:56:21;;;;;;;18.33;7.90;;;;;;;;;;5088091;28;20404;-84
2022/03/05 09:58:47;;;;;;;12.77;7.18;;;;;;;;;;5088261;28;20020;-84
2022/03/05 10:01:14;;;;;;;13.88;7.97;;;;;;;;;;5089631;28;20031;-85
2022/03/05 10:03:44;;;;;;;13.25;6.70;;;;;;;;;;5088158;28;20055;-86
2022/03/05 10:06:16;;;;;;;15.07;6.38;;;;;;;;;;5087105;28;20047;-87
2022/03/05 10:08:42;;;;;;;12.95;6.35;;;;;;;;;;5088539;28;20373;-88
2022/03/05 10:11:09;;;;;;;11.43;6.35;;;;;;;;;;5089078;28;20039;-85
2022/03/05 10:13:36;;;;;;;12.75;6.45;;;;;;;;;;5089848;28;20518;-85
2022/03/05 10:16:07;;;;;;;11.57;6.25;;;;;;;;;;5089734;28;20020;-86
2022/03/05 10:18:34;;;;;;;13.30;6.28;;;;;;;;;;5088810;28;20020;-87
2022/03/05 10:21:01;;;;;;;12.48;5.78;;;;;;;;;;5088205;28;20028;-86
2022/03/05 10:23:30;;;;;;;13.70;6.47;;;;;;;;;;5087694;28;20043;-88
2022/03/05 10:25:57;;;;;;;11.35;6.20;;;;;;;;;;5089094;28;20023;-87
2022/03/05 10:28:24;;;;;;;11.20;5.97;;;;;;;;;;5088971;28;20416;-88
2022/03/05 10:30:50;;;;;;;7.40;5.00;;;;;;;;;;5089253;28;20055;-87
2022/03/05 10:33:24;;;;;;;8.73;5.68;;;;;;;;;;5089017;28;20032;-85
2022/03/05 10:35:50;;;;;;;7.78;5.20;;;;;;;;;;5089331;28;20055;-87
2022/03/05 10:38:16;;;;;;;9.13;5.50;;;;;;;;;;5087328;28;20027;-85
2022/03/05 10:40:42;;;;;;;7.63;5.00;;;;;;;;;;5087399;28;20024;-87
2022/03/05 10:43:08;;;;;;;11.68;5.68;;;;;;;;;;5087339;28;20028;-88
2022/03/05 10:45:54;;;;;;;9.35;5.65;;;;;;;;;;5089412;28;20032;-89
2022/03/05 10:48:21;;;;;;;10.15;6.32;;;;;;;;;;5087852;28;20120;-89
2022/03/05 10:50:47;;;;;;;10.82;6.45;;;;;;;;;;5089066;28;20024;-90
2022/03/05 10:53:13;;;;;;;8.95;5.93;;;;;;;;;;5088214;28;20036;-89
2022/03/05 10:55:40;;;;;;;11.85;6.35;;;;;;;;;;5087666;28;20480;-89
2022/03/05 10:58:17;;;;;;;12.23;6.00;;;;;;;;;;5088105;28;20480;-88
2022/03/05 11:00:45;;;;;;;9.52;5.53;;;;;;;;;;5074593;28;20494;-87
2022/03/05 11:03:11;;;;;;;10.55;4.80;;;;;;;;;;5088912;28;20483;-88
2022/03/05 11:05:37;;;;;;;7.50;4.28;;;;;;;;;;5089624;28;20028;-86
2022/03/05 11:08:04;;;;;;;7.18;4.10;;;;;;;;;;5088328;28;20415;-87
2022/03/05 11:10:31;;;;;;;9.50;3.90;;;;;;;;;;5087024;28;20514;-87
2022/03/05 11:12:59;;;;;;;12.10;4.65;;;;;;;;;;5087300;28;20476;-86
2022/03/05 11:15:25;;;;;;;;;;;;;;;;;;5087809;28;20384;-86
2022/03/05 11:17:51;;;;;;;14.07;4.57;;;;;;;;;;5087525;28;19904;-86
2022/03/05 11:20:17;;;;;;;5.78;4.38;;;;;;;;;;5088582;28;20090;-86
2022/03/05 11:22:49;;;;;;;6.32;3.80;;;;;;;;;;5086844;28;20032;-84
2022/03/05 11:25:15;;;;;;;5.60;4.00;;;;;;;;;;5088287;28;20049;-85
2022/03/05 11:27:51;;;;;;;5.97;3.63;;;;;;;;;;5088593;28;20036;-84
2022/03/05 11:30:18;;;;;;;4.82;3.60;;;;;;;;;;5089155;28;20109;-86
2022/03/05 11:32:45;;;;;;;5.63;3.28;;;;;;;;;;5089928;28;20107;-86
2022/03/05 11:35:24;;;;;;;5.93;3.90;;;;;;;;;;5091930;28;20028;-87
2022/03/05 11:37:51;;;;;;;3.85;3.15;;;;;;;;;;5092167;28;20020;-84
2022/03/05 11:40:35;;;;;;;6.57;3.47;;;;;;;;;;5090207;28;20058;-84
2022/03/05 11:43:25;;;;;;;6.82;4.05;;;;;;;;;;5070358;28;20075;-85
2022/03/05 11:45:58;;;;;;;5.07;3.45;;;;;;;;;;5077043;28;20043;-85
2022/03/05 11:48:30;;;;;;;7.68;4.65;;;;;;;;;;5071636;28;20104;-86
2022/03/05 11:50:58;;;;;;;9.65;4.78;;;;;;;;;;5071477;28;20031;-85
2022/03/05 11:53:24;;;;;;;9.68;4.22;;;;;;;;;;5071459;28;20559;-85
2022/03/05 11:55:50;;;;;;;8.55;4.55;;;;;;;;;;5070159;28;20032;-84
2022/03/05 11:58:18;;;;;;;10.10;4.95;;;;;;;;;;5070068;28;20123;-85
2022/03/05 12:00:46;;;;;;;6.28;4.13;;;;;;;;;;5069886;28;20469;-85
2022/03/05 12:03:21;;;;;;;8.02;4.45;;;;;;;;;;5076612;28;20423;-84
2022/03/05 12:05:47;;;;;;;9.70;5.63;;;;;;;;;;5088007;28;20020;-85
2022/03/05 12:08:24;;;;;;;14.68;8.20;;;;;;;;;;5088105;28;20082;-85
2022/03/05 12:11:10;;;;;;;12.07;5.07;;;;;;;;;;5088954;28;20043;-87
2022/03/05 12:13:42;;;;;;;21.08;12.73;;;;;;;;;;5088966;28;20028;-85
2022/03/05 12:16:15;;;;;;;12.10;8.38;;;;;;;;;;5091001;28;20028;-84
2022/03/05 12:18:42;;;;;;;22.58;15.82;;;;;;;;;;5089804;28;20114;-84
2022/03/05 12:21:08;;;;;;;9.40;5.43;;;;;;;;;;5090955;28;20028;-86
2022/03/05 12:23:34;;;;;;;10.50;5.40;;;;;;;;;;5088881;28;20127;-85
2022/03/05 12:26:04;;;;;;;11.85;5.43;;;;;;;;;;5089980;28;20043;-85
2022/03/05 12:28:36;;;;;;;11.85;5.03;;;;;;;;;;5090176;28;20031;-85
2022/03/05 12:31:03;;;;;;;7.82;4.93;;;;;;;;;;5089679;28;20016;-84
2022/03/05 12:33:33;;;;;;;10.10;5.68;;;;;;;;;;5089848;28;20107;-84
2022/03/05 12:36:01;;;;;;;6.55;4.70;;;;;;;;;;5083482;28;20508;-84
2022/03/05 12:38:27;;;;;;;;;;;;;;;;;;5088001;28;20020;-84
2022/03/05 12:40:53;;;;;;;7.65;4.70;;;;;;;;;;5088597;28;19911;-84
2022/03/05 12:43:19;;;;;;;9.40;4.18;;;;;;;;;;5088554;28;20016;-85
2022/03/05 12:45:46;;;;;;;9.00;4.88;;;;;;;;;;5087815;28;20024;-86
2022/03/05 12:48:12;;;;;;;7.28;3.88;;;;;;;;;;5090430;28;20032;-84
2022/03/05 12:50:40;;;;;;;7.18;3.83;;;;;;;;;;5089025;28;20469;-84
2022/03/05 12:53:08;;;;;;;6.25;3.53;;;;;;;;;;5089069;28;20391;-85
2022/03/05 12:55:36;;;;;;;5.20;3.45;;;;;;;;;;5088426;28;20160;-85
2022/03/05 12:58:06;;;;;;;6.17;3.90;;;;;;;;;;5082833;28;20488;-84
2022/03/05 13:00:32;;;;;;;5.50;3.38;;;;;;;;;;5090260;28;20024;-87
2022/03/05 13:02:58;;;;;;;4.60;3.20;;;;;;;;;;5090462;28;20036;-85
2022/03/05 13:05:25;;;;;;;6.20;3.17;;;;;;;;;;5090482;28;20031;-83
2022/03/05 13:07:51;;;;;;;7.82;3.70;;;;;;;;;;5088936;28;20036;-85
2022/03/05 13:10:18;;;;;;;7.30;3.50;;;;;;;;;;5090173;28;20044;-84
2022/03/05 13:12:45;;;;;;;9.02;3.80;;;;;;;;;;5091118;28;20476;-84
2022/03/05 13:15:21;;;;;;;8.85;3.85;;;;;;;;;;5091185;28;20424;-84
2022/03/05 13:17:47;;;;;;;5.40;3.75;;;;;;;;;;5090161;28;20020;-85
2022/03/05 13:20:15;;;;;;;9.43;3.83;;;;;;;;;;5091041;28;20020;-85
2022/03/05 13:22:42;;;;;;;10.25;3.53;;;;;;;;;;5091150;28;20523;-84
2022/03/05 13:25:11;;;;;;;5.85;3.38;;;;;;;;;;5090248;28;20077;-84
2022/03/05 13:27:37;;;;;;;7.75;3.92;;;;;;;;;;5090031;28;20089;-85
2022/03/05 13:30:08;;;;;;;5.45;3.53;;;;;;;;;;5090126;28;20043;-85
2022/03/05 13:32:44;;;;;;;9.65;3.80;;;;;;;;;;5088754;28;20261;-85
2022/03/05 13:35:10;;;;;;;7.57;3.70;;;;;;;;;;5089979;28;20028;-85
2022/03/05 13:37:39;;;;;;;6.70;4.10;;;;;;;;;;5089997;28;20081;-85
2022/03/05 13:40:07;;;;;;;7.82;3.53;;;;;;;;;;5089938;28;20023;-85
2022/03/05 13:42:34;;;;;;;6.73;3.23;;;;;;;;;;5089907;28;20020;-85
2022/03/05 13:45:05;;;;;;;6.07;3.58;;;;;;;;;;5089738;28;20065;-85
2022/03/05 13:47:31;;;;;;;4.82;3.70;;;;;;;;;;5089575;28;20032;-86
2022/03/05 13:50:01;;;;;;;6.30;3.53;;;;;;;;;;5088494;28;20016;-85
2022/03/05 13:52:30;;;;;;;5.53;3.78;;;;;;;;;;5088459;28;20024;-84
2022/03/05 13:55:05;;;;;;;5.00;3.53;;;;;;;;;;5088070;28;20020;-85
2022/03/05 13:57:32;;;;;;;7.05;4.30;;;;;;;;;;5089464;28;20089;-85
2022/03/05 14:00:09;;;;;;;7.43;3.53;;;;;;;;;;5088156;28;20041;-85
2022/03/05 14:02:35;;;;;;;5.60;3.65;;;;;;;;;;5088221;28;20060;-85
2022/03/05 14:05:06;;;;;;;4.25;3.50;;;;;;;;;;5088172;28;20020;-84
2022/03/05 14:07:36;;;;;;;4.90;3.60;;;;;;;;;;5089287;28;20438;-85
2022/03/05 14:10:03;;;;;;;6.95;3.63;;;;;;;;;;5089396;28;20024;-85
2022/03/05 14:12:30;;;;;;;5.85;3.45;;;;;;;;;;5089362;28;20077;-85
2022/03/05 14:14:59;;;;;;;5.18;3.72;;;;;;;;;;5089241;28;20090;-85
2022/03/05 14:17:28;;;;;;;7.13;3.58;;;;;;;;;;5089222;28;20032;-85
2022/03/05 14:20:13;;;;;;;4.65;4.00;;;;;;;;;;5087815;28;20024;-84
2022/03/05 14:22:47;;;;;;;4.38;3.50;;;;;;;;;;5089154;28;20032;-85
2022/03/05 14:25:31;;;;;;;6.03;3.63;;;;;;;;;;5089271;28;20051;-85
2022/03/05 14:27:58;;;;;;;7.03;3.60;;;;;;;;;;5088582;28;20043;-84
2022/03/05 14:30:25;;;;;;;7.53;3.67;;;;;;;;;;5089038;28;20020;-85
2022/03/05 14:32:51;;;;;;;7.45;3.78;;;;;;;;;;5088944;28;20028;-86
2022/03/05 14:35:18;;;;;;;5.20;3.95;;;;;;;;;;5088504;28;20039;-85
2022/03/05 14:37:45;;;;;;;6.40;4.10;;;;;;;;;;5089835;28;20032;-86